sensor_id;sensor_type;location;lat;lon;timestamp;P1;durP1;ratioP1;P2;durP2;ratioP2
5999;SDS011;3028;49.468;7.694;2022-11-15T00:01:18;2.83;;;2.58;;
5999;SDS011;3028;49.468;7.694;2022-11-15T00:03:20;3.13;;;2.92;;
5999;SDS011;3028;49.468;7.694;2022-11-15T00:05:26;4.05;;;2.45;;
5999;SDS011;3028;49.468;7.694;2022-11-15T00:07:28;4.13;;;3.17;;
5999;SDS011;3028;49.468;7.694;2022-11-15T00:09:49;2.90;;;2.70;;
5999;SDS011;3028;49.468;7.694;2022-11-15T00:11:51;2.88;;;2.55;;
5999;SDS011;3028;49.468;7.694;2022-11-15T00:13:56;4.03;;;2.63;;
5999;SDS011;3028;49.468;7.694;2022-11-15T00:15:59;3.42;;;3.00;;
5999;SDS011;3028;49.468;7.694;2022-11-15T00:18:02;3.50;;;3.08;;
5999;SDS011;3028;49.468;7.694;2022-11-15T00:20:04;2.28;;;2.17;;
5999;SDS011;3028;49.468;7.694;2022-11-15T00:22:06;3.70;;;3.28;;
5999;SDS011;3028;49.468;7.694;2022-11-15T00:24:08;3.42;;;3.13;;
5999;SDS011;3028;49.468;7.694;2022-11-15T00:26:11;2.88;;;2.67;;
5999;SDS011;3028;49.468;7.694;2022-11-15T00:28:14;6.05;;;3.17;;
5999;SDS011;3028;49.468;7.694;2022-11-15T00:30:16;4.38;;;3.38;;
5999;SDS011;3028;49.468;7.694;2022-11-15T00:32:18;3.85;;;3.55;;
5999;SDS011;3028;49.468;7.694;2022-11-15T00:34:19;3.40;;;3.17;;
5999;SDS011;3028;49.468;7.694;2022-11-15T00:36:21;4.68;;;3.53;;
5999;SDS011;3028;49.468;7.694;2022-11-15T00:38:23;3.45;;;3.15;;
5999;SDS011;3028;49.468;7.694;2022-11-15T00:40:24;3.40;;;3.10;;
5999;SDS011;3028;49.468;7.694;2022-11-15T00:42:26;3.42;;;3.10;;
5999;SDS011;3028;49.468;7.694;2022-11-15T00:44:28;3.45;;;3.15;;
5999;SDS011;3028;49.468;7.694;2022-11-15T00:46:29;3.25;;;2.95;;
5999;SDS011;3028;49.468;7.694;2022-11-15T00:48:31;3.00;;;2.70;;
5999;SDS011;3028;49.468;7.694;2022-11-15T00:50:33;3.47;;;3.10;;
5999;SDS011;3028;49.468;7.694;2022-11-15T00:52:35;2.92;;;2.72;;
5999;SDS011;3028;49.468;7.694;2022-11-15T00:54:37;4.53;;;2.97;;
5999;SDS011;3028;49.468;7.694;2022-11-15T00:56:38;3.47;;;3.17;;
5999;SDS011;3028;49.468;7.694;2022-11-15T00:58:40;2.90;;;2.70;;
5999;SDS011;3028;49.468;7.694;2022-11-15T01:00:42;8.07;;;2.35;;
5999;SDS011;3028;49.468;7.694;2022-11-15T01:02:43;3.00;;;2.70;;
5999;SDS011;3028;49.468;7.694;2022-11-15T01:04:45;3.47;;;3.17;;
5999;SDS011;3028;49.468;7.694;2022-11-15T01:06:47;3.00;;;2.78;;
5999;SDS011;3028;49.468;7.694;2022-11-15T01:08:48;2.95;;;2.67;;
5999;SDS011;3028;49.468;7.694;2022-11-15T01:10:50;3.45;;;3.05;;
5999;SDS011;3028;49.468;7.694;2022-11-15T01:12:52;2.53;;;2.33;;
5999;SDS011;3028;49.468;7.694;2022-11-15T01:14:53;3.20;;;2.58;;
5999;SDS011;3028;49.468;7.694;2022-11-15T01:16:55;2.80;;;2.60;;
5999;SDS011;3028;49.468;7.694;2022-11-15T01:18:57;2.40;;;2.28;;
5999;SDS011;3028;49.468;7.694;2022-11-15T01:20:58;5.78;;;2.45;;
5999;SDS011;3028;49.468;7.694;2022-11-15T01:23:00;2.97;;;2.78;;
5999;SDS011;3028;49.468;7.694;2022-11-15T01:25:02;2.15;;;2.05;;
5999;SDS011;3028;49.468;7.694;2022-11-15T01:27:04;3.65;;;2.78;;
5999;SDS011;3028;49.468;7.694;2022-11-15T01:29:05;2.42;;;2.22;;
5999;SDS011;3028;49.468;7.694;2022-11-15T01:31:10;2.83;;;2.63;;
5999;SDS011;3028;49.468;7.694;2022-11-15T01:33:14;2.97;;;2.33;;
5999;SDS011;3028;49.468;7.694;2022-11-15T01:35:16;2.90;;;2.50;;
5999;SDS011;3028;49.468;7.694;2022-11-15T01:37:17;2.78;;;2.58;;
5999;SDS011;3028;49.468;7.694;2022-11-15T01:39:19;3.65;;;2.42;;
5999;SDS011;3028;49.468;7.694;2022-11-15T01:41:22;2.25;;;2.10;;
5999;SDS011;3028;49.468;7.694;2022-11-15T01:43:26;3.35;;;2.92;;
5999;SDS011;3028;49.468;7.694;2022-11-15T01:45:30;2.55;;;2.35;;
5999;SDS011;3028;49.468;7.694;2022-11-15T01:47:33;3.30;;;3.10;;
5999;SDS011;3028;49.468;7.694;2022-11-15T01:49:38;3.22;;;2.45;;
5999;SDS011;3028;49.468;7.694;2022-11-15T01:51:40;2.20;;;1.90;;
5999;SDS011;3028;49.468;7.694;2022-11-15T01:53:43;2.05;;;1.95;;
5999;SDS011;3028;49.468;7.694;2022-11-15T01:55:47;2.00;;;1.90;;
5999;SDS011;3028;49.468;7.694;2022-11-15T01:57:50;2.63;;;2.42;;
5999;SDS011;3028;49.468;7.694;2022-11-15T01:59:58;2.95;;;2.72;;
5999;SDS011;3028;49.468;7.694;2022-11-15T02:02:01;2.03;;;1.92;;
5999;SDS011;3028;49.468;7.694;2022-11-15T02:04:24;2.75;;;2.50;;
5999;SDS011;3028;49.468;7.694;2022-11-15T02:06:26;2.40;;;2.20;;
5999;SDS011;3028;49.468;7.694;2022-11-15T02:08:31;2.28;;;2.08;;
5999;SDS011;3028;49.468;7.694;2022-11-15T02:10:32;2.58;;;2.38;;
5999;SDS011;3028;49.468;7.694;2022-11-15T02:12:34;2.53;;;2.03;;
5999;SDS011;3028;49.468;7.694;2022-11-15T02:14:37;2.03;;;1.83;;
5999;SDS011;3028;49.468;7.694;2022-11-15T02:18:49;1.85;;;1.75;;
5999;SDS011;3028;49.468;7.694;2022-11-15T02:30:02;2.45;;;2.08;;
5999;SDS011;3028;49.468;7.694;2022-11-15T02:39:30;2.10;;;1.80;;
5999;SDS011;3028;49.468;7.694;2022-11-15T02:44:02;2.33;;;2.10;;
5999;SDS011;3028;49.468;7.694;2022-11-15T02:46:08;2.33;;;2.13;;
5999;SDS011;3028;49.468;7.694;2022-11-15T02:48:14;2.42;;;2.17;;
5999;SDS011;3028;49.468;7.694;2022-11-15T02:50:17;2.47;;;1.90;;
5999;SDS011;3028;49.468;7.694;2022-11-15T02:52:21;1.80;;;1.70;;
5999;SDS011;3028;49.468;7.694;2022-11-15T02:54:25;2.80;;;2.60;;
5999;SDS011;3028;49.468;7.694;2022-11-15T02:56:32;2.72;;;2.53;;
5999;SDS011;3028;49.468;7.694;2022-11-15T03:00:58;2.35;;;2.15;;
5999;SDS011;3028;49.468;7.694;2022-11-15T03:10:12;2.08;;;1.98;;
5999;SDS011;3028;49.468;7.694;2022-11-15T03:12:46;2.22;;;2.13;;
5999;SDS011;3028;49.468;7.694;2022-11-15T03:14:58;5.60;;;2.65;;
5999;SDS011;3028;49.468;7.694;2022-11-15T03:21:18;1.98;;;1.88;;
5999;SDS011;3028;49.468;7.694;2022-11-15T03:23:21;2.47;;;2.28;;
5999;SDS011;3028;49.468;7.694;2022-11-15T03:25:24;2.08;;;1.75;;
5999;SDS011;3028;49.468;7.694;2022-11-15T03:27:28;2.40;;;2.20;;
5999;SDS011;3028;49.468;7.694;2022-11-15T03:29:36;2.25;;;2.10;;
5999;SDS011;3028;49.468;7.694;2022-11-15T03:31:42;2.55;;;2.35;;
5999;SDS011;3028;49.468;7.694;2022-11-15T03:33:51;2.20;;;2.00;;
5999;SDS011;3028;49.468;7.694;2022-11-15T03:35:54;3.38;;;2.67;;
5999;SDS011;3028;49.468;7.694;2022-11-15T03:38:11;3.53;;;2.38;;
5999;SDS011;3028;49.468;7.694;2022-11-15T03:40:17;2.17;;;1.98;;
5999;SDS011;3028;49.468;7.694;2022-11-15T03:42:32;1.75;;;1.65;;
5999;SDS011;3028;49.468;7.694;2022-11-15T03:46:56;2.10;;;1.90;;
5999;SDS011;3028;49.468;7.694;2022-11-15T03:49:09;3.97;;;2.35;;
5999;SDS011;3028;49.468;7.694;2022-11-15T03:51:13;2.00;;;1.88;;
5999;SDS011;3028;49.468;7.694;2022-11-15T03:53:15;2.45;;;2.25;;
5999;SDS011;3028;49.468;7.694;2022-11-15T03:55:18;1.60;;;1.50;;
5999;SDS011;3028;49.468;7.694;2022-11-15T03:57:20;2.25;;;1.95;;
5999;SDS011;3028;49.468;7.694;2022-11-15T03:59:23;1.73;;;1.40;;
5999;SDS011;3028;49.468;7.694;2022-11-15T04:01:24;7.13;;;2.22;;
5999;SDS011;3028;49.468;7.694;2022-11-15T04:03:26;2.42;;;2.22;;
5999;SDS011;3028;49.468;7.694;2022-11-15T04:05:28;2.03;;;1.83;;
5999;SDS011;3028;49.468;7.694;2022-11-15T04:07:30;2.40;;;2.10;;
5999;SDS011;3028;49.468;7.694;2022-11-15T04:09:32;2.67;;;2.20;;
5999;SDS011;3028;49.468;7.694;2022-11-15T04:11:33;2.17;;;1.98;;
5999;SDS011;3028;49.468;7.694;2022-11-15T04:13:35;2.17;;;1.98;;
5999;SDS011;3028;49.468;7.694;2022-11-15T04:15:36;2.17;;;2.00;;
5999;SDS011;3028;49.468;7.694;2022-11-15T04:17:45;2.10;;;1.98;;
5999;SDS011;3028;49.468;7.694;2022-11-15T04:19:48;2.53;;;2.08;;
5999;SDS011;3028;49.468;7.694;2022-11-15T04:22:08;2.30;;;1.92;;
5999;SDS011;3028;49.468;7.694;2022-11-15T04:24:28;2.10;;;1.90;;
5999;SDS011;3028;49.468;7.694;2022-11-15T04:26:30;1.77;;;1.67;;
5999;SDS011;3028;49.468;7.694;2022-11-15T04:28:32;1.70;;;1.60;;
5999;SDS011;3028;49.468;7.694;2022-11-15T04:30:34;1.85;;;1.70;;
5999;SDS011;3028;49.468;7.694;2022-11-15T04:32:36;1.80;;;1.70;;
5999;SDS011;3028;49.468;7.694;2022-11-15T04:34:37;2.47;;;2.20;;
5999;SDS011;3028;49.468;7.694;2022-11-15T04:36:39;1.60;;;1.50;;
5999;SDS011;3028;49.468;7.694;2022-11-15T04:38:59;1.52;;;1.42;;
5999;SDS011;3028;49.468;7.694;2022-11-15T04:41:01;1.80;;;1.70;;
5999;SDS011;3028;49.468;7.694;2022-11-15T04:43:04;1.73;;;1.63;;
5999;SDS011;3028;49.468;7.694;2022-11-15T04:45:05;1.63;;;1.52;;
5999;SDS011;3028;49.468;7.694;2022-11-15T04:47:07;1.88;;;1.77;;
5999;SDS011;3028;49.468;7.694;2022-11-15T04:49:09;3.92;;;2.10;;
5999;SDS011;3028;49.468;7.694;2022-11-15T04:51:11;2.15;;;1.95;;
5999;SDS011;3028;49.468;7.694;2022-11-15T04:53:13;2.10;;;2.00;;
5999;SDS011;3028;49.468;7.694;2022-11-15T04:55:15;2.30;;;2.10;;
5999;SDS011;3028;49.468;7.694;2022-11-15T04:57:17;2.50;;;2.22;;
5999;SDS011;3028;49.468;7.694;2022-11-15T04:59:18;1.63;;;1.52;;
5999;SDS011;3028;49.468;7.694;2022-11-15T05:01:23;1.73;;;1.63;;
5999;SDS011;3028;49.468;7.694;2022-11-15T05:03:25;2.15;;;2.05;;
5999;SDS011;3028;49.468;7.694;2022-11-15T05:05:45;2.03;;;1.83;;
5999;SDS011;3028;49.468;7.694;2022-11-15T05:07:47;1.92;;;1.77;;
5999;SDS011;3028;49.468;7.694;2022-11-15T05:09:49;2.13;;;1.92;;
5999;SDS011;3028;49.468;7.694;2022-11-15T05:11:51;2.15;;;1.98;;
5999;SDS011;3028;49.468;7.694;2022-11-15T05:13:52;1.63;;;1.45;;
5999;SDS011;3028;49.468;7.694;2022-11-15T05:15:54;2.10;;;1.90;;
5999;SDS011;3028;49.468;7.694;2022-11-15T05:17:59;1.80;;;1.70;;
5999;SDS011;3028;49.468;7.694;2022-11-15T05:20:01;2.25;;;2.05;;
5999;SDS011;3028;49.468;7.694;2022-11-15T05:22:03;1.48;;;1.38;;
5999;SDS011;3028;49.468;7.694;2022-11-15T05:24:05;2.42;;;1.55;;
5999;SDS011;3028;49.468;7.694;2022-11-15T05:26:07;1.33;;;1.27;;
5999;SDS011;3028;49.468;7.694;2022-11-15T05:28:10;1.55;;;1.45;;
5999;SDS011;3028;49.468;7.694;2022-11-15T05:30:11;2.05;;;1.85;;
5999;SDS011;3028;49.468;7.694;2022-11-15T05:32:13;1.50;;;1.40;;
5999;SDS011;3028;49.468;7.694;2022-11-15T05:34:15;1.48;;;1.38;;
5999;SDS011;3028;49.468;7.694;2022-11-15T05:36:29;2.70;;;2.33;;
5999;SDS011;3028;49.468;7.694;2022-11-15T05:38:33;3.15;;;1.60;;
5999;SDS011;3028;49.468;7.694;2022-11-15T05:40:35;2.25;;;2.05;;
5999;SDS011;3028;49.468;7.694;2022-11-15T05:42:36;1.50;;;1.40;;
5999;SDS011;3028;49.468;7.694;2022-11-15T05:44:39;2.40;;;1.98;;
5999;SDS011;3028;49.468;7.694;2022-11-15T05:46:46;1.90;;;1.65;;
5999;SDS011;3028;49.468;7.694;2022-11-15T05:48:48;1.75;;;1.65;;
5999;SDS011;3028;49.468;7.694;2022-11-15T05:50:51;1.98;;;1.88;;
5999;SDS011;3028;49.468;7.694;2022-11-15T05:52:53;2.00;;;1.90;;
5999;SDS011;3028;49.468;7.694;2022-11-15T05:54:58;1.60;;;1.50;;
5999;SDS011;3028;49.468;7.694;2022-11-15T05:57:03;1.55;;;1.45;;
5999;SDS011;3028;49.468;7.694;2022-11-15T05:59:07;1.42;;;1.33;;
5999;SDS011;3028;49.468;7.694;2022-11-15T06:01:09;2.00;;;1.80;;
5999;SDS011;3028;49.468;7.694;2022-11-15T06:03:11;1.92;;;1.83;;
5999;SDS011;3028;49.468;7.694;2022-11-15T06:05:15;1.58;;;1.48;;
5999;SDS011;3028;49.468;7.694;2022-11-15T06:07:17;4.15;;;1.67;;
5999;SDS011;3028;49.468;7.694;2022-11-15T06:09:19;1.75;;;1.65;;
5999;SDS011;3028;49.468;7.694;2022-11-15T06:11:21;1.80;;;1.70;;
5999;SDS011;3028;49.468;7.694;2022-11-15T06:13:23;1.58;;;1.48;;
5999;SDS011;3028;49.468;7.694;2022-11-15T06:15:24;2.05;;;1.90;;
5999;SDS011;3028;49.468;7.694;2022-11-15T06:17:31;1.70;;;1.60;;
5999;SDS011;3028;49.468;7.694;2022-11-15T06:19:33;3.05;;;2.28;;
5999;SDS011;3028;49.468;7.694;2022-11-15T06:21:34;1.60;;;1.42;;
5999;SDS011;3028;49.468;7.694;2022-11-15T06:23:36;1.48;;;1.38;;
5999;SDS011;3028;49.468;7.694;2022-11-15T06:25:38;1.38;;;1.27;;
5999;SDS011;3028;49.468;7.694;2022-11-15T06:27:40;1.00;;;1.00;;
5999;SDS011;3028;49.468;7.694;2022-11-15T06:29:42;1.95;;;1.83;;
5999;SDS011;3028;49.468;7.694;2022-11-15T06:31:43;2.55;;;2.05;;
5999;SDS011;3028;49.468;7.694;2022-11-15T06:33:46;1.70;;;1.40;;
5999;SDS011;3028;49.468;7.694;2022-11-15T06:35:47;1.67;;;1.45;;
5999;SDS011;3028;49.468;7.694;2022-11-15T06:37:49;1.30;;;1.20;;
5999;SDS011;3028;49.468;7.694;2022-11-15T06:39:51;1.65;;;1.55;;
5999;SDS011;3028;49.468;7.694;2022-11-15T06:41:53;1.80;;;1.58;;
5999;SDS011;3028;49.468;7.694;2022-11-15T06:43:55;2.55;;;2.22;;
5999;SDS011;3028;49.468;7.694;2022-11-15T06:45:58;2.45;;;1.40;;
5999;SDS011;3028;49.468;7.694;2022-11-15T06:48:00;1.73;;;1.63;;
5999;SDS011;3028;49.468;7.694;2022-11-15T06:50:02;1.92;;;1.83;;
5999;SDS011;3028;49.468;7.694;2022-11-15T06:52:04;2.03;;;1.55;;
5999;SDS011;3028;49.468;7.694;2022-11-15T06:54:06;1.40;;;1.27;;
5999;SDS011;3028;49.468;7.694;2022-11-15T06:56:07;2.00;;;1.90;;
5999;SDS011;3028;49.468;7.694;2022-11-15T06:58:10;2.78;;;2.55;;
5999;SDS011;3028;49.468;7.694;2022-11-15T07:00:12;1.85;;;1.65;;
5999;SDS011;3028;49.468;7.694;2022-11-15T07:02:14;1.88;;;1.77;;
5999;SDS011;3028;49.468;7.694;2022-11-15T07:04:16;1.65;;;1.55;;
5999;SDS011;3028;49.468;7.694;2022-11-15T07:06:18;1.65;;;1.55;;
5999;SDS011;3028;49.468;7.694;2022-11-15T07:08:20;2.78;;;2.10;;
5999;SDS011;3028;49.468;7.694;2022-11-15T07:10:23;1.80;;;1.60;;
5999;SDS011;3028;49.468;7.694;2022-11-15T07:12:26;1.75;;;1.65;;
5999;SDS011;3028;49.468;7.694;2022-11-15T07:14:27;2.10;;;1.88;;
5999;SDS011;3028;49.468;7.694;2022-11-15T07:16:29;2.80;;;2.60;;
5999;SDS011;3028;49.468;7.694;2022-11-15T07:18:32;1.50;;;1.40;;
5999;SDS011;3028;49.468;7.694;2022-11-15T07:20:35;1.65;;;1.40;;
5999;SDS011;3028;49.468;7.694;2022-11-15T07:22:37;1.85;;;1.75;;
5999;SDS011;3028;49.468;7.694;2022-11-15T07:24:39;2.20;;;2.00;;
5999;SDS011;3028;49.468;7.694;2022-11-15T07:26:40;1.67;;;1.58;;
5999;SDS011;3028;49.468;7.694;2022-11-15T07:28:42;2.40;;;1.77;;
5999;SDS011;3028;49.468;7.694;2022-11-15T07:30:44;1.63;;;1.45;;
5999;SDS011;3028;49.468;7.694;2022-11-15T07:32:46;2.60;;;2.17;;
5999;SDS011;3028;49.468;7.694;2022-11-15T07:34:48;2.22;;;2.00;;
5999;SDS011;3028;49.468;7.694;2022-11-15T07:36:50;2.25;;;2.05;;
5999;SDS011;3028;49.468;7.694;2022-11-15T07:38:52;3.33;;;1.83;;
5999;SDS011;3028;49.468;7.694;2022-11-15T07:40:57;4.53;;;2.30;;
5999;SDS011;3028;49.468;7.694;2022-11-15T07:43:01;2.28;;;2.10;;
5999;SDS011;3028;49.468;7.694;2022-11-15T07:45:03;2.92;;;2.30;;
5999;SDS011;3028;49.468;7.694;2022-11-15T07:47:06;2.40;;;2.20;;
5999;SDS011;3028;49.468;7.694;2022-11-15T07:49:08;3.03;;;1.75;;
5999;SDS011;3028;49.468;7.694;2022-11-15T07:51:12;2.60;;;2.40;;
5999;SDS011;3028;49.468;7.694;2022-11-15T07:53:15;2.33;;;2.22;;
5999;SDS011;3028;49.468;7.694;2022-11-15T07:55:17;2.33;;;2.13;;
5999;SDS011;3028;49.468;7.694;2022-11-15T07:57:19;2.75;;;2.55;;
5999;SDS011;3028;49.468;7.694;2022-11-15T07:59:21;2.33;;;2.13;;
5999;SDS011;3028;49.468;7.694;2022-11-15T08:01:23;2.38;;;2.03;;
5999;SDS011;3028;49.468;7.694;2022-11-15T08:03:25;2.53;;;2.40;;
5999;SDS011;3028;49.468;7.694;2022-11-15T08:05:26;2.35;;;2.15;;
5999;SDS011;3028;49.468;7.694;2022-11-15T08:07:29;2.53;;;2.30;;
5999;SDS011;3028;49.468;7.694;2022-11-15T08:09:40;2.42;;;2.22;;
5999;SDS011;3028;49.468;7.694;2022-11-15T08:11:42;2.92;;;2.72;;
5999;SDS011;3028;49.468;7.694;2022-11-15T08:13:44;2.80;;;2.55;;
5999;SDS011;3028;49.468;7.694;2022-11-15T08:15:45;3.65;;;2.25;;
5999;SDS011;3028;49.468;7.694;2022-11-15T08:17:47;3.08;;;1.65;;
5999;SDS011;3028;49.468;7.694;2022-11-15T08:19:49;1.63;;;1.52;;
5999;SDS011;3028;49.468;7.694;2022-11-15T08:21:50;2.75;;;2.05;;
5999;SDS011;3028;49.468;7.694;2022-11-15T08:23:52;1.63;;;1.52;;
5999;SDS011;3028;49.468;7.694;2022-11-15T08:26:03;1.70;;;1.60;;
5999;SDS011;3028;49.468;7.694;2022-11-15T08:28:06;2.00;;;1.80;;
5999;SDS011;3028;49.468;7.694;2022-11-15T08:30:09;1.38;;;1.27;;
5999;SDS011;3028;49.468;7.694;2022-11-15T08:32:12;1.75;;;1.65;;
5999;SDS011;3028;49.468;7.694;2022-11-15T08:34:14;5.95;;;2.35;;
5999;SDS011;3028;49.468;7.694;2022-11-15T08:36:16;1.60;;;1.50;;
5999;SDS011;3028;49.468;7.694;2022-11-15T08:38:24;2.10;;;1.92;;
5999;SDS011;3028;49.468;7.694;2022-11-15T08:40:30;2.20;;;2.00;;
5999;SDS011;3028;49.468;7.694;2022-11-15T08:42:32;1.90;;;1.70;;
5999;SDS011;3028;49.468;7.694;2022-11-15T08:44:34;2.53;;;1.73;;
5999;SDS011;3028;49.468;7.694;2022-11-15T08:46:36;2.33;;;2.08;;
5999;SDS011;3028;49.468;7.694;2022-11-15T08:48:38;2.47;;;2.08;;
5999;SDS011;3028;49.468;7.694;2022-11-15T08:50:40;2.17;;;1.92;;
5999;SDS011;3028;49.468;7.694;2022-11-15T08:52:42;2.35;;;2.22;;
5999;SDS011;3028;49.468;7.694;2022-11-15T08:54:43;3.38;;;2.03;;
5999;SDS011;3028;49.468;7.694;2022-11-15T08:56:45;1.77;;;1.67;;
5999;SDS011;3028;49.468;7.694;2022-11-15T08:58:53;2.60;;;2.30;;
5999;SDS011;3028;49.468;7.694;2022-11-15T09:00:55;2.13;;;1.85;;
5999;SDS011;3028;49.468;7.694;2022-11-15T09:02:57;1.80;;;1.70;;
5999;SDS011;3028;49.468;7.694;2022-11-15T09:04:58;1.73;;;1.63;;
5999;SDS011;3028;49.468;7.694;2022-11-15T09:07:00;1.92;;;1.55;;
5999;SDS011;3028;49.468;7.694;2022-11-15T09:09:02;2.53;;;1.85;;
5999;SDS011;3028;49.468;7.694;2022-11-15T09:11:06;1.70;;;1.23;;
5999;SDS011;3028;49.468;7.694;2022-11-15T09:13:16;1.48;;;1.38;;
5999;SDS011;3028;49.468;7.694;2022-11-15T09:15:18;2.30;;;2.10;;
5999;SDS011;3028;49.468;7.694;2022-11-15T09:17:20;2.13;;;1.95;;
5999;SDS011;3028;49.468;7.694;2022-11-15T09:19:25;2.22;;;2.03;;
5999;SDS011;3028;49.468;7.694;2022-11-15T09:21:28;3.58;;;2.05;;
5999;SDS011;3028;49.468;7.694;2022-11-15T09:23:30;1.67;;;1.55;;
5999;SDS011;3028;49.468;7.694;2022-11-15T09:25:32;2.20;;;2.00;;
5999;SDS011;3028;49.468;7.694;2022-11-15T09:27:34;1.92;;;1.83;;
5999;SDS011;3028;49.468;7.694;2022-11-15T09:29:36;1.90;;;1.80;;
5999;SDS011;3028;49.468;7.694;2022-11-15T09:31:37;1.58;;;1.48;;
5999;SDS011;3028;49.468;7.694;2022-11-15T09:33:39;1.60;;;1.50;;
5999;SDS011;3028;49.468;7.694;2022-11-15T09:35:41;2.97;;;2.03;;
5999;SDS011;3028;49.468;7.694;2022-11-15T09:37:43;4.10;;;1.77;;
5999;SDS011;3028;49.468;7.694;2022-11-15T09:39:44;1.83;;;1.73;;
5999;SDS011;3028;49.468;7.694;2022-11-15T09:41:49;5.13;;;1.80;;
5999;SDS011;3028;49.468;7.694;2022-11-15T09:51:14;1.95;;;1.83;;
5999;SDS011;3028;49.468;7.694;2022-11-15T09:56:09;2.28;;;1.90;;
5999;SDS011;3028;49.468;7.694;2022-11-15T10:01:08;2.92;;;1.40;;
5999;SDS011;3028;49.468;7.694;2022-11-15T10:05:45;1.63;;;1.52;;
5999;SDS011;3028;49.468;7.694;2022-11-15T10:10:15;2.10;;;1.98;;
5999;SDS011;3028;49.468;7.694;2022-11-15T10:12:25;2.22;;;1.75;;
5999;SDS011;3028;49.468;7.694;2022-11-15T10:14:28;1.17;;;1.08;;
5999;SDS011;3028;49.468;7.694;2022-11-15T10:21:17;1.77;;;1.67;;
5999;SDS011;3028;49.468;7.694;2022-11-15T10:23:22;1.92;;;1.83;;
5999;SDS011;3028;49.468;7.694;2022-11-15T10:25:25;1.60;;;1.40;;
5999;SDS011;3028;49.468;7.694;2022-11-15T10:27:30;1.40;;;1.30;;
5999;SDS011;3028;49.468;7.694;2022-11-15T10:29:33;1.40;;;1.30;;
5999;SDS011;3028;49.468;7.694;2022-11-15T10:31:37;1.52;;;1.38;;
5999;SDS011;3028;49.468;7.694;2022-11-15T10:33:40;1.00;;;1.00;;
5999;SDS011;3028;49.468;7.694;2022-11-15T10:35:42;1.38;;;1.27;;
5999;SDS011;3028;49.468;7.694;2022-11-15T10:37:44;1.20;;;1.10;;
5999;SDS011;3028;49.468;7.694;2022-11-15T10:39:56;1.25;;;1.15;;
5999;SDS011;3028;49.468;7.694;2022-11-15T10:46:21;1.13;;;1.13;;
5999;SDS011;3028;49.468;7.694;2022-11-15T10:48:44;1.00;;;0.90;;
5999;SDS011;3028;49.468;7.694;2022-11-15T10:50:46;0.90;;;0.90;;
5999;SDS011;3028;49.468;7.694;2022-11-15T10:52:49;0.80;;;0.80;;
5999;SDS011;3028;49.468;7.694;2022-11-15T10:57:14;1.13;;;1.00;;
5999;SDS011;3028;49.468;7.694;2022-11-15T10:59:19;1.30;;;1.20;;
5999;SDS011;3028;49.468;7.694;2022-11-15T11:01:27;0.90;;;0.90;;
5999;SDS011;3028;49.468;7.694;2022-11-15T11:03:34;0.70;;;0.70;;
5999;SDS011;3028;49.468;7.694;2022-11-15T11:05:39;1.25;;;1.15;;
5999;SDS011;3028;49.468;7.694;2022-11-15T11:07:43;1.60;;;1.00;;
5999;SDS011;3028;49.468;7.694;2022-11-15T11:09:58;1.20;;;0.82;;
5999;SDS011;3028;49.468;7.694;2022-11-15T11:12:41;1.00;;;0.90;;
5999;SDS011;3028;49.468;7.694;2022-11-15T11:14:42;1.08;;;0.88;;
5999;SDS011;3028;49.468;7.694;2022-11-15T11:16:46;1.05;;;1.05;;
5999;SDS011;3028;49.468;7.694;2022-11-15T11:26:40;0.70;;;0.70;;
5999;SDS011;3028;49.468;7.694;2022-11-15T11:33:34;2.25;;;0.80;;
5999;SDS011;3028;49.468;7.694;2022-11-15T11:35:54;1.00;;;0.85;;
5999;SDS011;3028;49.468;7.694;2022-11-15T11:38:37;1.85;;;0.93;;
5999;SDS011;3028;49.468;7.694;2022-11-15T11:40:44;1.08;;;1.02;;
5999;SDS011;3028;49.468;7.694;2022-11-15T11:43:01;1.17;;;1.08;;
5999;SDS011;3028;49.468;7.694;2022-11-15T11:45:23;0.75;;;0.60;;
5999;SDS011;3028;49.468;7.694;2022-11-15T11:47:38;0.70;;;0.70;;
5999;SDS011;3028;49.468;7.694;2022-11-15T11:52:01;1.95;;;1.75;;
5999;SDS011;3028;49.468;7.694;2022-11-15T11:54:10;1.83;;;1.50;;
5999;SDS011;3028;49.468;7.694;2022-11-15T11:56:18;0.82;;;0.82;;
5999;SDS011;3028;49.468;7.694;2022-11-15T11:58:41;0.80;;;0.80;;
5999;SDS011;3028;49.468;7.694;2022-11-15T12:00:46;0.90;;;0.90;;
5999;SDS011;3028;49.468;7.694;2022-11-15T12:08:40;0.80;;;0.80;;
5999;SDS011;3028;49.468;7.694;2022-11-15T12:10:50;0.82;;;0.77;;
5999;SDS011;3028;49.468;7.694;2022-11-15T12:17:10;1.08;;;0.88;;
5999;SDS011;3028;49.468;7.694;2022-11-15T12:19:14;0.70;;;0.70;;
5999;SDS011;3028;49.468;7.694;2022-11-15T12:23:49;0.70;;;0.70;;
5999;SDS011;3028;49.468;7.694;2022-11-15T12:25:57;1.08;;;0.98;;
5999;SDS011;3028;49.468;7.694;2022-11-15T12:35:41;0.60;;;0.60;;
5999;SDS011;3028;49.468;7.694;2022-11-15T12:37:48;0.70;;;0.70;;
5999;SDS011;3028;49.468;7.694;2022-11-15T12:55:30;1.00;;;1.00;;
5999;SDS011;3028;49.468;7.694;2022-11-15T12:57:37;0.63;;;0.57;;
5999;SDS011;3028;49.468;7.694;2022-11-15T13:01:53;2.33;;;0.82;;
5999;SDS011;3028;49.468;7.694;2022-11-15T13:06:38;0.30;;;0.30;;
5999;SDS011;3028;49.468;7.694;2022-11-15T13:08:43;0.40;;;0.40;;
5999;SDS011;3028;49.468;7.694;2022-11-15T13:10:48;0.60;;;0.60;;
5999;SDS011;3028;49.468;7.694;2022-11-15T13:12:51;0.70;;;0.70;;
5999;SDS011;3028;49.468;7.694;2022-11-15T13:17:00;0.70;;;0.70;;
5999;SDS011;3028;49.468;7.694;2022-11-15T13:19:02;0.70;;;0.70;;
5999;SDS011;3028;49.468;7.694;2022-11-15T13:21:05;0.77;;;0.77;;
5999;SDS011;3028;49.468;7.694;2022-11-15T13:23:39;0.80;;;0.80;;
5999;SDS011;3028;49.468;7.694;2022-11-15T13:30:24;0.82;;;0.82;;
5999;SDS011;3028;49.468;7.694;2022-11-15T13:32:27;0.70;;;0.70;;
5999;SDS011;3028;49.468;7.694;2022-11-15T13:34:30;0.60;;;0.60;;
5999;SDS011;3028;49.468;7.694;2022-11-15T13:36:54;0.52;;;0.52;;
5999;SDS011;3028;49.468;7.694;2022-11-15T13:39:11;0.70;;;0.70;;
5999;SDS011;3028;49.468;7.694;2022-11-15T13:45:22;0.85;;;0.85;;
5999;SDS011;3028;49.468;7.694;2022-11-15T13:47:27;1.80;;;1.23;;
5999;SDS011;3028;49.468;7.694;2022-11-15T13:49:30;0.70;;;0.70;;
5999;SDS011;3028;49.468;7.694;2022-11-15T13:53:37;0.70;;;0.70;;
5999;SDS011;3028;49.468;7.694;2022-11-15T13:55:41;1.10;;;1.10;;
5999;SDS011;3028;49.468;7.694;2022-11-15T13:57:47;0.70;;;0.70;;
5999;SDS011;3028;49.468;7.694;2022-11-15T13:59:52;0.55;;;0.55;;
5999;SDS011;3028;49.468;7.694;2022-11-15T14:01:57;0.80;;;0.80;;
5999;SDS011;3028;49.468;7.694;2022-11-15T14:04:00;0.70;;;0.68;;
5999;SDS011;3028;49.468;7.694;2022-11-15T14:06:09;1.00;;;1.00;;
5999;SDS011;3028;49.468;7.694;2022-11-15T14:12:32;2.58;;;1.30;;
5999;SDS011;3028;49.468;7.694;2022-11-15T14:14:35;1.23;;;1.10;;
5999;SDS011;3028;49.468;7.694;2022-11-15T14:16:56;1.55;;;0.73;;
5999;SDS011;3028;49.468;7.694;2022-11-15T14:18:59;0.70;;;0.70;;
5999;SDS011;3028;49.468;7.694;2022-11-15T14:21:07;0.70;;;0.70;;
5999;SDS011;3028;49.468;7.694;2022-11-15T14:23:27;0.85;;;0.70;;
5999;SDS011;3028;49.468;7.694;2022-11-15T14:25:29;0.52;;;0.52;;
5999;SDS011;3028;49.468;7.694;2022-11-15T14:27:33;0.90;;;0.90;;
5999;SDS011;3028;49.468;7.694;2022-11-15T14:29:35;1.20;;;0.73;;
5999;SDS011;3028;49.468;7.694;2022-11-15T14:31:36;1.50;;;1.40;;
5999;SDS011;3028;49.468;7.694;2022-11-15T14:33:43;0.57;;;0.57;;
5999;SDS011;3028;49.468;7.694;2022-11-15T14:35:46;0.55;;;0.55;;
5999;SDS011;3028;49.468;7.694;2022-11-15T14:37:48;0.63;;;0.63;;
5999;SDS011;3028;49.468;7.694;2022-11-15T14:39:50;0.70;;;0.70;;
5999;SDS011;3028;49.468;7.694;2022-11-15T14:41:52;0.68;;;0.68;;
5999;SDS011;3028;49.468;7.694;2022-11-15T14:43:54;1.08;;;0.70;;
5999;SDS011;3028;49.468;7.694;2022-11-15T14:45:56;0.70;;;0.70;;
5999;SDS011;3028;49.468;7.694;2022-11-15T14:47:57;1.00;;;0.90;;
5999;SDS011;3028;49.468;7.694;2022-11-15T14:49:59;0.98;;;0.85;;
5999;SDS011;3028;49.468;7.694;2022-11-15T14:52:01;0.60;;;0.60;;
5999;SDS011;3028;49.468;7.694;2022-11-15T14:54:07;1.02;;;0.95;;
5999;SDS011;3028;49.468;7.694;2022-11-15T14:56:11;0.65;;;0.65;;
5999;SDS011;3028;49.468;7.694;2022-11-15T14:58:13;4.75;;;1.23;;
5999;SDS011;3028;49.468;7.694;2022-11-15T15:00:15;0.80;;;0.80;;
5999;SDS011;3028;49.468;7.694;2022-11-15T15:02:21;0.80;;;0.80;;
5999;SDS011;3028;49.468;7.694;2022-11-15T15:04:28;0.80;;;0.80;;
5999;SDS011;3028;49.468;7.694;2022-11-15T15:06:30;1.27;;;0.85;;
5999;SDS011;3028;49.468;7.694;2022-11-15T15:08:32;1.05;;;0.95;;
5999;SDS011;3028;49.468;7.694;2022-11-15T15:10:35;1.08;;;0.90;;
5999;SDS011;3028;49.468;7.694;2022-11-15T15:12:41;1.23;;;1.10;;